sensor_id;sensor_type;location;lat;lon;timestamp;temperature;humidity
59533;DHT22;45351;53.596;10.000;2022-08-19T00:01:17;25.30;61.40
59533;DHT22;45351;53.596;10.000;2022-08-19T00:03:44;25.40;61.20
59533;DHT22;45351;53.596;10.000;2022-08-19T00:06:11;25.50;61.10
59533;DHT22;45351;53.596;10.000;2022-08-19T00:08:38;25.50;61.00
59533;DHT22;45351;53.596;10.000;2022-08-19T00:11:05;25.50;61.10
59533;DHT22;45351;53.596;10.000;2022-08-19T00:13:33;25.60;61.00
59533;DHT22;45351;53.596;10.000;2022-08-19T00:16:00;25.60;61.00
59533;DHT22;45351;53.596;10.000;2022-08-19T00:18:29;25.50;61.00
59533;DHT22;45351;53.596;10.000;2022-08-19T00:20:57;25.50;61.10
59533;DHT22;45351;53.596;10.000;2022-08-19T00:23:25;25.50;61.20
59533;DHT22;45351;53.596;10.000;2022-08-19T00:25:52;25.50;61.30
59533;DHT22;45351;53.596;10.000;2022-08-19T00:28:19;25.50;61.10
59533;DHT22;45351;53.596;10.000;2022-08-19T00:30:46;25.60;61.20
59533;DHT22;45351;53.596;10.000;2022-08-19T00:33:13;25.60;61.10
59533;DHT22;45351;53.596;10.000;2022-08-19T00:35:43;25.50;61.20
59533;DHT22;45351;53.596;10.000;2022-08-19T00:38:10;25.60;61.40
59533;DHT22;45351;53.596;10.000;2022-08-19T00:40:37;25.50;61.40
59533;DHT22;45351;53.596;10.000;2022-08-19T00:43:08;25.50;61.40
59533;DHT22;45351;53.596;10.000;2022-08-19T00:45:35;25.50;61.60
59533;DHT22;45351;53.596;10.000;2022-08-19T00:48:03;25.50;61.50
59533;DHT22;45351;53.596;10.000;2022-08-19T00:50:30;25.50;61.70
59533;DHT22;45351;53.596;10.000;2022-08-19T00:52:59;25.50;61.50
59533;DHT22;45351;53.596;10.000;2022-08-19T00:55:31;25.50;61.40
59533;DHT22;45351;53.596;10.000;2022-08-19T00:58:02;25.50;61.50
59533;DHT22;45351;53.596;10.000;2022-08-19T01:00:30;25.50;61.70
59533;DHT22;45351;53.596;10.000;2022-08-19T01:02:58;25.50;61.80
59533;DHT22;45351;53.596;10.000;2022-08-19T01:05:27;25.40;61.60
59533;DHT22;45351;53.596;10.000;2022-08-19T01:07:59;25.40;61.60
59533;DHT22;45351;53.596;10.000;2022-08-19T01:10:30;25.40;61.80
59533;DHT22;45351;53.596;10.000;2022-08-19T01:12:59;25.40;62.00
59533;DHT22;45351;53.596;10.000;2022-08-19T01:15:30;25.40;61.80
59533;DHT22;45351;53.596;10.000;2022-08-19T01:18:00;25.50;62.10
59533;DHT22;45351;53.596;10.000;2022-08-19T01:20:28;25.50;62.00
59533;DHT22;45351;53.596;10.000;2022-08-19T01:22:58;25.50;61.60
59533;DHT22;45351;53.596;10.000;2022-08-19T01:25:30;25.50;61.60
59533;DHT22;45351;53.596;10.000;2022-08-19T01:27:58;25.60;61.70
59533;DHT22;45351;53.596;10.000;2022-08-19T01:30:28;25.50;61.40
59533;DHT22;45351;53.596;10.000;2022-08-19T01:32:56;25.60;61.80
59533;DHT22;45351;53.596;10.000;2022-08-19T01:35:25;25.60;61.50
59533;DHT22;45351;53.596;10.000;2022-08-19T01:37:55;25.60;61.60
59533;DHT22;45351;53.596;10.000;2022-08-19T01:40:28;25.50;61.60
59533;DHT22;45351;53.596;10.000;2022-08-19T01:42:57;25.50;62.00
59533;DHT22;45351;53.596;10.000;2022-08-19T01:45:25;25.50;61.70
59533;DHT22;45351;53.596;10.000;2022-08-19T01:47:53;25.50;61.70
59533;DHT22;45351;53.596;10.000;2022-08-19T01:50:39;25.50;61.80
59533;DHT22;45351;53.596;10.000;2022-08-19T01:53:26;25.50;61.80
59533;DHT22;45351;53.596;10.000;2022-08-19T01:56:14;25.50;61.80
59533;DHT22;45351;53.596;10.000;2022-08-19T01:59:04;25.60;62.00
59533;DHT22;45351;53.596;10.000;2022-08-19T02:01:52;25.50;62.00
59533;DHT22;45351;53.596;10.000;2022-08-19T02:04:19;25.40;62.00
59533;DHT22;45351;53.596;10.000;2022-08-19T02:06:46;25.40;62.10
59533;DHT22;45351;53.596;10.000;2022-08-19T02:09:13;25.40;62.40
59533;DHT22;45351;53.596;10.000;2022-08-19T02:11:43;25.40;62.30
59533;DHT22;45351;53.596;10.000;2022-08-19T02:14:10;25.40;62.10
59533;DHT22;45351;53.596;10.000;2022-08-19T02:16:37;25.50;62.20
59533;DHT22;45351;53.596;10.000;2022-08-19T02:19:05;25.50;62.10
59533;DHT22;45351;53.596;10.000;2022-08-19T02:21:32;25.50;61.90
59533;DHT22;45351;53.596;10.000;2022-08-19T02:24:00;25.50;62.10
59533;DHT22;45351;53.596;10.000;2022-08-19T02:26:27;25.50;62.00
59533;DHT22;45351;53.596;10.000;2022-08-19T02:28:55;25.50;62.00
59533;DHT22;45351;53.596;10.000;2022-08-19T02:31:24;25.50;62.20
59533;DHT22;45351;53.596;10.000;2022-08-19T02:33:53;25.50;62.20
59533;DHT22;45351;53.596;10.000;2022-08-19T02:36:21;25.50;62.20
59533;DHT22;45351;53.596;10.000;2022-08-19T02:38:48;25.50;62.30
59533;DHT22;45351;53.596;10.000;2022-08-19T02:41:17;25.40;62.30
59533;DHT22;45351;53.596;10.000;2022-08-19T02:43:44;25.40;62.50
59533;DHT22;45351;53.596;10.000;2022-08-19T02:46:14;25.40;62.50
59533;DHT22;45351;53.596;10.000;2022-08-19T02:48:43;25.40;62.60
59533;DHT22;45351;53.596;10.000;2022-08-19T02:51:16;25.40;62.70
59533;DHT22;45351;53.596;10.000;2022-08-19T02:53:44;25.40;62.80
59533;DHT22;45351;53.596;10.000;2022-08-19T02:56:11;25.30;62.90
59533;DHT22;45351;53.596;10.000;2022-08-19T02:58:38;25.30;63.00
59533;DHT22;45351;53.596;10.000;2022-08-19T03:01:05;25.30;63.10
59533;DHT22;45351;53.596;10.000;2022-08-19T03:03:33;25.30;63.10
59533;DHT22;45351;53.596;10.000;2022-08-19T03:06:10;25.30;63.30
59533;DHT22;45351;53.596;10.000;2022-08-19T03:08:39;25.30;63.50
59533;DHT22;45351;53.596;10.000;2022-08-19T03:11:10;25.30;63.70
59533;DHT22;45351;53.596;10.000;2022-08-19T03:13:38;25.20;63.50
59533;DHT22;45351;53.596;10.000;2022-08-19T03:16:05;25.20;63.40
59533;DHT22;45351;53.596;10.000;2022-08-19T03:18:33;25.30;63.60
59533;DHT22;45351;53.596;10.000;2022-08-19T03:21:00;25.20;63.40
59533;DHT22;45351;53.596;10.000;2022-08-19T03:23:27;25.20;63.60
59533;DHT22;45351;53.596;10.000;2022-08-19T03:25:54;25.20;63.70
59533;DHT22;45351;53.596;10.000;2022-08-19T03:28:21;25.20;63.50
59533;DHT22;45351;53.596;10.000;2022-08-19T03:30:59;25.20;63.50
59533;DHT22;45351;53.596;10.000;2022-08-19T03:33:28;25.30;64.00
59533;DHT22;45351;53.596;10.000;2022-08-19T03:36:08;25.30;63.40
59533;DHT22;45351;53.596;10.000;2022-08-19T03:38:36;25.20;63.40
59533;DHT22;45351;53.596;10.000;2022-08-19T03:41:05;25.20;63.50
59533;DHT22;45351;53.596;10.000;2022-08-19T03:43:34;25.30;63.40
59533;DHT22;45351;53.596;10.000;2022-08-19T03:46:03;25.30;63.30
59533;DHT22;45351;53.596;10.000;2022-08-19T03:48:32;25.30;63.30
59533;DHT22;45351;53.596;10.000;2022-08-19T03:50:59;25.30;63.40
59533;DHT22;45351;53.596;10.000;2022-08-19T03:53:29;25.30;63.30
59533;DHT22;45351;53.596;10.000;2022-08-19T03:55:57;25.30;63.30
59533;DHT22;45351;53.596;10.000;2022-08-19T03:58:26;25.30;63.40
59533;DHT22;45351;53.596;10.000;2022-08-19T04:00:54;25.20;63.70
59533;DHT22;45351;53.596;10.000;2022-08-19T04:03:21;25.30;63.50
59533;DHT22;45351;53.596;10.000;2022-08-19T04:05:48;25.30;63.60
59533;DHT22;45351;53.596;10.000;2022-08-19T04:08:15;25.30;63.60
59533;DHT22;45351;53.596;10.000;2022-08-19T04:10:48;25.30;63.60
59533;DHT22;45351;53.596;10.000;2022-08-19T04:13:15;25.20;63.30
59533;DHT22;45351;53.596;10.000;2022-08-19T04:15:44;25.20;63.60
59533;DHT22;45351;53.596;10.000;2022-08-19T04:18:12;25.20;63.80
59533;DHT22;45351;53.596;10.000;2022-08-19T04:20:41;25.20;63.60
59533;DHT22;45351;53.596;10.000;2022-08-19T04:23:09;25.20;63.50
59533;DHT22;45351;53.596;10.000;2022-08-19T04:25:38;25.20;63.70
59533;DHT22;45351;53.596;10.000;2022-08-19T04:28:07;25.10;64.40
59533;DHT22;45351;53.596;10.000;2022-08-19T04:30:40;25.20;63.70
59533;DHT22;45351;53.596;10.000;2022-08-19T04:33:08;25.20;64.60
59533;DHT22;45351;53.596;10.000;2022-08-19T04:35:38;25.10;64.10
59533;DHT22;45351;53.596;10.000;2022-08-19T04:38:06;25.20;63.80
59533;DHT22;45351;53.596;10.000;2022-08-19T04:40:33;25.20;63.90
59533;DHT22;45351;53.596;10.000;2022-08-19T04:43:18;25.20;64.10
59533;DHT22;45351;53.596;10.000;2022-08-19T04:45:46;25.20;64.00
59533;DHT22;45351;53.596;10.000;2022-08-19T04:48:13;25.30;63.80
59533;DHT22;45351;53.596;10.000;2022-08-19T04:50:41;25.20;63.80
59533;DHT22;45351;53.596;10.000;2022-08-19T04:53:09;25.30;63.80
59533;DHT22;45351;53.596;10.000;2022-08-19T04:55:39;25.30;63.60
59533;DHT22;45351;53.596;10.000;2022-08-19T04:58:06;25.30;63.60
59533;DHT22;45351;53.596;10.000;2022-08-19T05:00:37;25.30;63.70
59533;DHT22;45351;53.596;10.000;2022-08-19T05:03:04;25.30;63.80
59533;DHT22;45351;53.596;10.000;2022-08-19T05:05:30;25.30;63.70
59533;DHT22;45351;53.596;10.000;2022-08-19T05:07:58;25.30;63.80
59533;DHT22;45351;53.596;10.000;2022-08-19T05:10:25;25.20;63.90
59533;DHT22;45351;53.596;10.000;2022-08-19T05:12:51;25.20;63.80
59533;DHT22;45351;53.596;10.000;2022-08-19T05:15:18;25.30;63.70
59533;DHT22;45351;53.596;10.000;2022-08-19T05:17:47;25.20;63.70
59533;DHT22;45351;53.596;10.000;2022-08-19T05:20:27;25.20;63.80
59533;DHT22;45351;53.596;10.000;2022-08-19T05:23:12;25.20;63.70
59533;DHT22;45351;53.596;10.000;2022-08-19T05:25:41;25.30;63.80
59533;DHT22;45351;53.596;10.000;2022-08-19T05:28:08;25.20;63.80
59533;DHT22;45351;53.596;10.000;2022-08-19T05:30:35;25.30;63.70
59533;DHT22;45351;53.596;10.000;2022-08-19T05:33:03;25.30;63.60
59533;DHT22;45351;53.596;10.000;2022-08-19T05:35:30;25.30;63.80
59533;DHT22;45351;53.596;10.000;2022-08-19T05:37:57;25.30;63.60
59533;DHT22;45351;53.596;10.000;2022-08-19T05:40:24;25.30;63.20
59533;DHT22;45351;53.596;10.000;2022-08-19T05:42:51;25.10;63.10
59533;DHT22;45351;53.596;10.000;2022-08-19T05:45:18;25.10;64.00
59533;DHT22;45351;53.596;10.000;2022-08-19T05:47:45;25.10;64.30
59533;DHT22;45351;53.596;10.000;2022-08-19T05:50:14;25.20;64.00
59533;DHT22;45351;53.596;10.000;2022-08-19T05:52:42;25.30;63.80
59533;DHT22;45351;53.596;10.000;2022-08-19T05:55:10;25.20;63.90
59533;DHT22;45351;53.596;10.000;2022-08-19T05:57:37;25.30;64.10
59533;DHT22;45351;53.596;10.000;2022-08-19T06:00:06;25.30;64.20
59533;DHT22;45351;53.596;10.000;2022-08-19T06:02:37;25.30;64.60
59533;DHT22;45351;53.596;10.000;2022-08-19T06:05:05;25.40;64.00
59533;DHT22;45351;53.596;10.000;2022-08-19T06:07:36;25.30;64.10
59533;DHT22;45351;53.596;10.000;2022-08-19T06:10:04;25.30;65.70
59533;DHT22;45351;53.596;10.000;2022-08-19T06:12:32;25.30;64.50
59533;DHT22;45351;53.596;10.000;2022-08-19T06:15:00;25.30;64.40
59533;DHT22;45351;53.596;10.000;2022-08-19T06:17:27;25.20;64.20
59533;DHT22;45351;53.596;10.000;2022-08-19T06:19:55;25.20;64.30
59533;DHT22;45351;53.596;10.000;2022-08-19T06:22:22;25.10;64.20
59533;DHT22;45351;53.596;10.000;2022-08-19T06:24:50;25.20;64.10
59533;DHT22;45351;53.596;10.000;2022-08-19T06:27:19;25.20;64.10
59533;DHT22;45351;53.596;10.000;2022-08-19T06:29:46;25.20;64.10
59533;DHT22;45351;53.596;10.000;2022-08-19T06:32:15;25.20;64.20
59533;DHT22;45351;53.596;10.000;2022-08-19T06:34:43;25.20;64.20
59533;DHT22;45351;53.596;10.000;2022-08-19T06:37:11;25.30;63.80
59533;DHT22;45351;53.596;10.000;2022-08-19T06:39:40;25.30;63.40
59533;DHT22;45351;53.596;10.000;2022-08-19T06:42:09;25.30;63.50
59533;DHT22;45351;53.596;10.000;2022-08-19T06:44:42;25.30;63.40
59533;DHT22;45351;53.596;10.000;2022-08-19T06:47:12;25.40;63.50
59533;DHT22;45351;53.596;10.000;2022-08-19T06:49:39;25.30;63.30
59533;DHT22;45351;53.596;10.000;2022-08-19T06:52:06;25.30;63.00
59533;DHT22;45351;53.596;10.000;2022-08-19T06:54:33;25.30;63.30
59533;DHT22;45351;53.596;10.000;2022-08-19T06:57:01;25.30;63.00
59533;DHT22;45351;53.596;10.000;2022-08-19T06:59:31;25.20;63.00
59533;DHT22;45351;53.596;10.000;2022-08-19T07:02:01;25.20;63.10
59533;DHT22;45351;53.596;10.000;2022-08-19T07:04:31;25.20;63.00
59533;DHT22;45351;53.596;10.000;2022-08-19T07:07:01;25.20;63.10
59533;DHT22;45351;53.596;10.000;2022-08-19T07:09:28;25.20;63.10
59533;DHT22;45351;53.596;10.000;2022-08-19T07:11:56;25.20;63.00
59533;DHT22;45351;53.596;10.000;2022-08-19T07:14:25;25.20;63.10
59533;DHT22;45351;53.596;10.000;2022-08-19T07:16:56;25.20;63.00
59533;DHT22;45351;53.596;10.000;2022-08-19T07:19:24;25.20;63.00
59533;DHT22;45351;53.596;10.000;2022-08-19T07:21:54;25.20;63.00
59533;DHT22;45351;53.596;10.000;2022-08-19T07:24:23;25.10;62.80
59533;DHT22;45351;53.596;10.000;2022-08-19T07:26:52;25.10;63.00
59533;DHT22;45351;53.596;10.000;2022-08-19T07:29:21;25.20;63.20
59533;DHT22;45351;53.596;10.000;2022-08-19T07:31:49;25.20;62.80
59533;DHT22;45351;53.596;10.000;2022-08-19T07:34:19;25.30;62.90
59533;DHT22;45351;53.596;10.000;2022-08-19T07:36:46;25.30;62.80
59533;DHT22;45351;53.596;10.000;2022-08-19T07:39:15;25.30;63.00
59533;DHT22;45351;53.596;10.000;2022-08-19T07:41:42;25.30;63.10
59533;DHT22;45351;53.596;10.000;2022-08-19T07:44:10;25.40;63.60
59533;DHT22;45351;53.596;10.000;2022-08-19T07:46:40;25.40;63.80
59533;DHT22;45351;53.596;10.000;2022-08-19T07:49:08;25.50;63.30
59533;DHT22;45351;53.596;10.000;2022-08-19T07:51:45;25.50;63.30
59533;DHT22;45351;53.596;10.000;2022-08-19T07:54:12;25.60;62.70
59533;DHT22;45351;53.596;10.000;2022-08-19T07:56:39;25.70;62.50
59533;DHT22;45351;53.596;10.000;2022-08-19T07:59:06;25.60;62.70
59533;DHT22;45351;53.596;10.000;2022-08-19T08:01:34;25.60;62.30
59533;DHT22;45351;53.596;10.000;2022-08-19T08:04:02;25.60;62.30
59533;DHT22;45351;53.596;10.000;2022-08-19T08:06:48;25.50;62.50
59533;DHT22;45351;53.596;10.000;2022-08-19T08:09:35;25.50;62.30
59533;DHT22;45351;53.596;10.000;2022-08-19T08:12:05;25.50;62.60
59533;DHT22;45351;53.596;10.000;2022-08-19T08:14:35;25.50;62.30
59533;DHT22;45351;53.596;10.000;2022-08-19T08:17:05;25.50;62.30
59533;DHT22;45351;53.596;10.000;2022-08-19T08:19:32;25.40;62.40
59533;DHT22;45351;53.596;10.000;2022-08-19T08:22:01;25.50;62.10
59533;DHT22;45351;53.596;10.000;2022-08-19T08:24:29;25.40;62.20
59533;DHT22;45351;53.596;10.000;2022-08-19T08:26:59;25.50;62.50
59533;DHT22;45351;53.596;10.000;2022-08-19T08:29:26;25.50;62.00
59533;DHT22;45351;53.596;10.000;2022-08-19T08:31:53;25.50;62.20
59533;DHT22;45351;53.596;10.000;2022-08-19T08:34:20;25.50;61.90
59533;DHT22;45351;53.596;10.000;2022-08-19T08:36:48;25.50;62.30
59533;DHT22;45351;53.596;10.000;2022-08-19T08:39:20;25.50;62.50
59533;DHT22;45351;53.596;10.000;2022-08-19T08:41:51;25.60;61.60
59533;DHT22;45351;53.596;10.000;2022-08-19T08:44:23;25.60;61.50
59533;DHT22;45351;53.596;10.000;2022-08-19T08:46:58;25.60;61.20
59533;DHT22;45351;53.596;10.000;2022-08-19T08:49:30;25.60;60.80
59533;DHT22;45351;53.596;10.000;2022-08-19T08:52:05;25.70;61.00
59533;DHT22;45351;53.596;10.000;2022-08-19T08:54:37;25.70;61.10
59533;DHT22;45351;53.596;10.000;2022-08-19T08:57:11;25.60;61.10
59533;DHT22;45351;53.596;10.000;2022-08-19T08:59:40;25.60;61.20
59533;DHT22;45351;53.596;10.000;2022-08-19T09:02:09;25.60;61.20
59533;DHT22;45351;53.596;10.000;2022-08-19T09:04:36;25.60;61.50
59533;DHT22;45351;53.596;10.000;2022-08-19T09:07:24;25.60;61.20
59533;DHT22;45351;53.596;10.000;2022-08-19T09:10:02;25.60;61.10
59533;DHT22;45351;53.596;10.000;2022-08-19T09:12:36;25.70;61.00
59533;DHT22;45351;53.596;10.000;2022-08-19T09:15:08;25.70;61.00
59533;DHT22;45351;53.596;10.000;2022-08-19T09:17:35;25.60;61.00
59533;DHT22;45351;53.596;10.000;2022-08-19T09:20:06;25.60;61.00
59533;DHT22;45351;53.596;10.000;2022-08-19T09:22:41;25.60;61.00
59533;DHT22;45351;53.596;10.000;2022-08-19T09:25:12;25.60;61.10
59533;DHT22;45351;53.596;10.000;2022-08-19T09:27:41;25.70;61.10
59533;DHT22;45351;53.596;10.000;2022-08-19T09:30:11;25.60;60.90
59533;DHT22;45351;53.596;10.000;2022-08-19T09:32:39;25.70;61.30
59533;DHT22;45351;53.596;10.000;2022-08-19T09:35:07;25.80;61.10
59533;DHT22;45351;53.596;10.000;2022-08-19T09:37:34;25.70;60.90
59533;DHT22;45351;53.596;10.000;2022-08-19T09:40:02;25.80;60.90
59533;DHT22;45351;53.596;10.000;2022-08-19T09:42:31;25.70;61.10
59533;DHT22;45351;53.596;10.000;2022-08-19T09:44:59;25.70;61.20
59533;DHT22;45351;53.596;10.000;2022-08-19T09:47:26;25.70;61.00
59533;DHT22;45351;53.596;10.000;2022-08-19T09:49:53;25.70;61.00
59533;DHT22;45351;53.596;10.000;2022-08-19T09:52:20;25.80;61.20
59533;DHT22;45351;53.596;10.000;2022-08-19T09:54:47;25.60;60.80
59533;DHT22;45351;53.596;10.000;2022-08-19T09:57:14;25.30;61.80
59533;DHT22;45351;53.596;10.000;2022-08-19T09:59:44;25.20;62.30
59533;DHT22;45351;53.596;10.000;2022-08-19T10:02:11;25.10;62.80
59533;DHT22;45351;53.596;10.000;2022-08-19T10:04:38;25.10;63.30
59533;DHT22;45351;53.596;10.000;2022-08-19T10:07:23;25.10;62.70
59533;DHT22;45351;53.596;10.000;2022-08-19T10:09:50;25.20;63.10
59533;DHT22;45351;53.596;10.000;2022-08-19T10:12:17;25.30;62.60
59533;DHT22;45351;53.596;10.000;2022-08-19T10:14:45;25.30;62.50
59533;DHT22;45351;53.596;10.000;2022-08-19T10:17:12;25.30;62.30
59533;DHT22;45351;53.596;10.000;2022-08-19T10:19:39;25.30;62.90
59533;DHT22;45351;53.596;10.000;2022-08-19T10:22:07;25.30;62.30
59533;DHT22;45351;53.596;10.000;2022-08-19T10:24:34;25.30;62.40
59533;DHT22;45351;53.596;10.000;2022-08-19T10:27:01;25.30;62.50
59533;DHT22;45351;53.596;10.000;2022-08-19T10:29:29;25.10;62.90
59533;DHT22;45351;53.596;10.000;2022-08-19T10:31:58;24.90;63.60
59533;DHT22;45351;53.596;10.000;2022-08-19T10:34:27;24.90;64.00
59533;DHT22;45351;53.596;10.000;2022-08-19T10:36:55;25.10;63.60
59533;DHT22;45351;53.596;10.000;2022-08-19T10:39:22;25.00;63.30
59533;DHT22;45351;53.596;10.000;2022-08-19T10:41:49;24.90;63.90
59533;DHT22;45351;53.596;10.000;2022-08-19T10:44:16;24.60;64.40
59533;DHT22;45351;53.596;10.000;2022-08-19T10:46:44;24.40;65.00
59533;DHT22;45351;53.596;10.000;2022-08-19T10:49:13;24.40;65.40
59533;DHT22;45351;53.596;10.000;2022-08-19T10:51:41;24.40;65.80
59533;DHT22;45351;53.596;10.000;2022-08-19T10:54:26;24.40;65.90
59533;DHT22;45351;53.596;10.000;2022-08-19T10:57:08;24.30;65.70
59533;DHT22;45351;53.596;10.000;2022-08-19T10:59:35;24.20;66.20
59533;DHT22;45351;53.596;10.000;2022-08-19T11:02:04;24.40;66.10
59533;DHT22;45351;53.596;10.000;2022-08-19T11:04:33;24.60;65.60
59533;DHT22;45351;53.596;10.000;2022-08-19T11:07:00;24.80;64.80
59533;DHT22;45351;53.596;10.000;2022-08-19T11:09:27;24.90;64.70
59533;DHT22;45351;53.596;10.000;2022-08-19T11:11:54;24.90;64.50
59533;DHT22;45351;53.596;10.000;2022-08-19T11:14:22;25.00;64.40
59533;DHT22;45351;53.596;10.000;2022-08-19T11:16:51;25.00;64.20
59533;DHT22;45351;53.596;10.000;2022-08-19T11:19:18;25.00;64.30
59533;DHT22;45351;53.596;10.000;2022-08-19T11:21:48;24.90;64.00
59533;DHT22;45351;53.596;10.000;2022-08-19T11:24:17;25.10;63.70
59533;DHT22;45351;53.596;10.000;2022-08-19T11:26:46;25.20;63.50
59533;DHT22;45351;53.596;10.000;2022-08-19T11:29:16;25.00;63.60
59533;DHT22;45351;53.596;10.000;2022-08-19T11:31:45;25.10;63.90
59533;DHT22;45351;53.596;10.000;2022-08-19T11:34:15;25.10;63.80
59533;DHT22;45351;53.596;10.000;2022-08-19T11:36:44;25.10;63.80
59533;DHT22;45351;53.596;10.000;2022-08-19T11:39:15;25.20;63.60
59533;DHT22;45351;53.596;10.000;2022-08-19T11:41:43;25.20;63.50
59533;DHT22;45351;53.596;10.000;2022-08-19T11:44:10;25.20;63.80
59533;DHT22;45351;53.596;10.000;2022-08-19T11:46:41;25.20;63.70
59533;DHT22;45351;53.596;10.000;2022-08-19T11:49:11;25.30;63.30
59533;DHT22;45351;53.596;10.000;2022-08-19T11:51:38;25.50;63.00
59533;DHT22;45351;53.596;10.000;2022-08-19T11:54:05;25.50;62.90
59533;DHT22;45351;53.596;10.000;2022-08-19T11:56:34;25.40;62.80
59533;DHT22;45351;53.596;10.000;2022-08-19T11:59:01;25.40;62.90
59533;DHT22;45351;53.596;10.000;2022-08-19T12:01:28;25.30;63.20
59533;DHT22;45351;53.596;10.000;2022-08-19T12:03:56;25.30;63.00
59533;DHT22;45351;53.596;10.000;2022-08-19T12:06:26;25.10;63.30
59533;DHT22;45351;53.596;10.000;2022-08-19T12:08:55;25.00;63.90
59533;DHT22;45351;53.596;10.000;2022-08-19T12:11:22;24.90;64.30
59533;DHT22;45351;53.596;10.000;2022-08-19T12:13:51;24.90;64.00
59533;DHT22;45351;53.596;10.000;2022-08-19T12:16:20;25.00;64.20
59533;DHT22;45351;53.596;10.000;2022-08-19T12:18:48;25.10;63.60
59533;DHT22;45351;53.596;10.000;2022-08-19T12:21:18;25.20;63.90
59533;DHT22;45351;53.596;10.000;2022-08-19T12:23:47;25.30;63.40
59533;DHT22;45351;53.596;10.000;2022-08-19T12:26:15;25.40;62.90
59533;DHT22;45351;53.596;10.000;2022-08-19T12:28:42;25.40;62.60
59533;DHT22;45351;53.596;10.000;2022-08-19T12:31:11;25.50;62.50
59533;DHT22;45351;53.596;10.000;2022-08-19T12:33:38;25.60;62.40
59533;DHT22;45351;53.596;10.000;2022-08-19T12:36:08;25.60;62.30
59533;DHT22;45351;53.596;10.000;2022-08-19T12:38:35;25.60;62.20
59533;DHT22;45351;53.596;10.000;2022-08-19T12:41:03;25.60;62.40
59533;DHT22;45351;53.596;10.000;2022-08-19T12:43:32;25.70;62.00
59533;DHT22;45351;53.596;10.000;2022-08-19T12:46:00;25.70;62.00
59533;DHT22;45351;53.596;10.000;2022-08-19T12:48:28;25.70;61.80
59533;DHT22;45351;53.596;10.000;2022-08-19T12:50:55;25.60;62.00
59533;DHT22;45351;53.596;10.000;2022-08-19T12:53:22;25.60;62.20
59533;DHT22;45351;53.596;10.000;2022-08-19T12:55:55;25.60;62.30
59533;DHT22;45351;53.596;10.000;2022-08-19T12:58:22;25.70;61.90
59533;DHT22;45351;53.596;10.000;2022-08-19T13:00:49;25.80;61.90
59533;DHT22;45351;53.596;10.000;2022-08-19T13:03:16;25.80;61.70
59533;DHT22;45351;53.596;10.000;2022-08-19T13:05:45;25.80;61.50
59533;DHT22;45351;53.596;10.000;2022-08-19T13:08:12;25.90;61.60
59533;DHT22;45351;53.596;10.000;2022-08-19T13:10:39;25.90;61.50
59533;DHT22;45351;53.596;10.000;2022-08-19T13:13:07;25.90;61.30
59533;DHT22;45351;53.596;10.000;2022-08-19T13:15:36;26.00;62.10
59533;DHT22;45351;53.596;10.000;2022-08-19T13:18:05;26.00;61.00
59533;DHT22;45351;53.596;10.000;2022-08-19T13:20:32;26.00;61.20
59533;DHT22;45351;53.596;10.000;2022-08-19T13:23:01;26.00;61.20
59533;DHT22;45351;53.596;10.000;2022-08-19T13:25:28;25.90;61.60
59533;DHT22;45351;53.596;10.000;2022-08-19T13:27:55;25.90;61.30
59533;DHT22;45351;53.596;10.000;2022-08-19T13:30:22;26.00;61.10
59533;DHT22;45351;53.596;10.000;2022-08-19T13:33:07;26.00;60.90
59533;DHT22;45351;53.596;10.000;2022-08-19T13:35:42;26.00;60.80
59533;DHT22;45351;53.596;10.000;2022-08-19T13:38:11;26.10;60.70
59533;DHT22;45351;53.596;10.000;2022-08-19T13:40:40;26.20;60.30
59533;DHT22;45351;53.596;10.000;2022-08-19T13:43:08;26.20;60.90
59533;DHT22;45351;53.596;10.000;2022-08-19T13:45:36;26.20;60.20
59533;DHT22;45351;53.596;10.000;2022-08-19T13:48:05;26.10;60.40
59533;DHT22;45351;53.596;10.000;2022-08-19T13:50:35;26.00;60.60
59533;DHT22;45351;53.596;10.000;2022-08-19T13:53:04;26.00;60.60
59533;DHT22;45351;53.596;10.000;2022-08-19T13:55:32;26.00;60.60
59533;DHT22;45351;53.596;10.000;2022-08-19T13:58:00;26.10;60.60
59533;DHT22;45351;53.596;10.000;2022-08-19T14:00:30;26.10;60.30
59533;DHT22;45351;53.596;10.000;2022-08-19T14:02:58;26.00;60.50
59533;DHT22;45351;53.596;10.000;2022-08-19T14:05:26;25.90;60.70
59533;DHT22;45351;53.596;10.000;2022-08-19T14:07:54;25.90;61.00
59533;DHT22;45351;53.596;10.000;2022-08-19T14:10:22;25.80;61.00
59533;DHT22;45351;53.596;10.000;2022-08-19T14:12:52;25.80;61.00
59533;DHT22;45351;53.596;10.000;2022-08-19T14:15:22;25.80;61.00
59533;DHT22;45351;53.596;10.000;2022-08-19T14:17:50;25.70;60.90
59533;DHT22;45351;53.596;10.000;2022-08-19T14:20:17;25.80;60.80
59533;DHT22;45351;53.596;10.000;2022-08-19T14:22:46;25.60;61.20
59533;DHT22;45351;53.596;10.000;2022-08-19T14:25:16;25.60;61.60
59533;DHT22;45351;53.596;10.000;2022-08-19T14:27:44;25.50;61.50
59533;DHT22;45351;53.596;10.000;2022-08-19T14:30:15;25.50;61.70
59533;DHT22;45351;53.596;10.000;2022-08-19T14:32:42;25.50;61.80
59533;DHT22;45351;53.596;10.000;2022-08-19T14:35:11;25.60;61.80
59533;DHT22;45351;53.596;10.000;2022-08-19T14:37:41;25.70;61.50
59533;DHT22;45351;53.596;10.000;2022-08-19T14:40:09;25.80;60.90
59533;DHT22;45351;53.596;10.000;2022-08-19T14:42:37;25.80;60.70
59533;DHT22;45351;53.596;10.000;2022-08-19T14:45:04;25.80;60.60
59533;DHT22;45351;53.596;10.000;2022-08-19T14:47:33;25.80;60.50
59533;DHT22;45351;53.596;10.000;2022-08-19T14:50:00;25.80;59.90
59533;DHT22;45351;53.596;10.000;2022-08-19T14:52:27;25.80;60.10
59533;DHT22;45351;53.596;10.000;2022-08-19T14:54:55;25.90;60.40
59533;DHT22;45351;53.596;10.000;2022-08-19T14:57:22;26.00;60.10
59533;DHT22;45351;53.596;10.000;2022-08-19T14:59:49;26.00;60.00
59533;DHT22;45351;53.596;10.000;2022-08-19T15:02:16;26.00;60.30
59533;DHT22;45351;53.596;10.000;2022-08-19T15:04:44;26.00;60.00
59533;DHT22;45351;53.596;10.000;2022-08-19T15:07:11;26.00;60.10
59533;DHT22;45351;53.596;10.000;2022-08-19T15:09:38;26.10;60.00
59533;DHT22;45351;53.596;10.000;2022-08-19T15:12:07;26.20;59.80
59533;DHT22;45351;53.596;10.000;2022-08-19T15:14:36;26.30;59.50
59533;DHT22;45351;53.596;10.000;2022-08-19T15:17:04;26.20;59.60
59533;DHT22;45351;53.596;10.000;2022-08-19T15:19:32;26.10;59.60
59533;DHT22;45351;53.596;10.000;2022-08-19T15:22:02;26.10;59.70
59533;DHT22;45351;53.596;10.000;2022-08-19T15:24:29;26.10;59.40
59533;DHT22;45351;53.596;10.000;2022-08-19T15:26:57;26.20;59.20